sensor_id;sensor_type;location;lat;lon;timestamp;P1;durP1;ratioP1;P2;durP2;ratioP2
36359;SDS011;22388;52.432;20.662;2023-02-01T00:01:17;19.65;;;10.50;;
36359;SDS011;22388;52.432;20.662;2023-02-01T00:03:43;16.45;;;10.48;;
36359;SDS011;22388;52.432;20.662;2023-02-01T00:06:09;13.70;;;8.82;;
36359;SDS011;22388;52.432;20.662;2023-02-01T00:08:34;15.57;;;10.02;;
36359;SDS011;22388;52.432;20.662;2023-02-01T00:11:05;14.00;;;8.02;;
36359;SDS011;22388;52.432;20.662;2023-02-01T00:13:33;11.15;;;7.47;;
36359;SDS011;22388;52.432;20.662;2023-02-01T00:18:31;11.57;;;6.05;;
36359;SDS011;22388;52.432;20.662;2023-02-01T00:20:57;10.68;;;5.72;;
36359;SDS011;22388;52.432;20.662;2023-02-01T00:23:23;12.60;;;5.68;;
36359;SDS011;22388;52.432;20.662;2023-02-01T00:25:49;8.73;;;4.53;;
36359;SDS011;22388;52.432;20.662;2023-02-01T00:28:14;10.00;;;4.28;;
36359;SDS011;22388;52.432;20.662;2023-02-01T00:30:40;7.78;;;3.30;;
36359;SDS011;22388;52.432;20.662;2023-02-01T00:33:06;6.25;;;2.97;;
36359;SDS011;22388;52.432;20.662;2023-02-01T00:35:33;9.80;;;2.80;;
36359;SDS011;22388;52.432;20.662;2023-02-01T00:37:59;6.05;;;2.55;;
36359;SDS011;22388;52.432;20.662;2023-02-01T00:40:25;7.78;;;2.50;;
36359;SDS011;22388;52.432;20.662;2023-02-01T00:42:51;9.65;;;2.70;;
36359;SDS011;22388;52.432;20.662;2023-02-01T00:45:17;14.25;;;3.30;;
36359;SDS011;22388;52.432;20.662;2023-02-01T00:47:43;12.13;;;3.60;;
36359;SDS011;22388;52.432;20.662;2023-02-01T00:50:08;11.60;;;3.38;;
36359;SDS011;22388;52.432;20.662;2023-02-01T00:52:34;9.38;;;3.58;;
36359;SDS011;22388;52.432;20.662;2023-02-01T00:55:00;9.05;;;2.72;;
36359;SDS011;22388;52.432;20.662;2023-02-01T00:57:26;7.53;;;2.30;;
36359;SDS011;22388;52.432;20.662;2023-02-01T00:59:51;10.32;;;2.97;;
36359;SDS011;22388;52.432;20.662;2023-02-01T01:02:17;11.13;;;3.40;;
36359;SDS011;22388;52.432;20.662;2023-02-01T01:04:42;10.23;;;3.15;;
36359;SDS011;22388;52.432;20.662;2023-02-01T01:07:08;9.70;;;3.35;;
36359;SDS011;22388;52.432;20.662;2023-02-01T01:09:34;8.70;;;3.33;;
36359;SDS011;22388;52.432;20.662;2023-02-01T01:11:59;11.20;;;3.25;;
36359;SDS011;22388;52.432;20.662;2023-02-01T01:14:28;11.73;;;3.35;;
36359;SDS011;22388;52.432;20.662;2023-02-01T01:16:54;11.27;;;2.47;;
36359;SDS011;22388;52.432;20.662;2023-02-01T01:19:20;8.70;;;2.45;;
36359;SDS011;22388;52.432;20.662;2023-02-01T01:21:45;11.00;;;2.08;;
36359;SDS011;22388;52.432;20.662;2023-02-01T01:24:11;9.77;;;2.53;;
36359;SDS011;22388;52.432;20.662;2023-02-01T01:26:37;10.60;;;2.53;;
36359;SDS011;22388;52.432;20.662;2023-02-01T01:29:03;13.00;;;2.90;;
36359;SDS011;22388;52.432;20.662;2023-02-01T01:31:29;13.20;;;2.75;;
36359;SDS011;22388;52.432;20.662;2023-02-01T01:33:56;10.68;;;3.30;;
36359;SDS011;22388;52.432;20.662;2023-02-01T01:36:23;11.15;;;3.20;;
36359;SDS011;22388;52.432;20.662;2023-02-01T01:38:49;8.48;;;3.20;;
36359;SDS011;22388;52.432;20.662;2023-02-01T01:41:17;9.05;;;3.22;;
36359;SDS011;22388;52.432;20.662;2023-02-01T01:43:48;13.60;;;3.15;;
36359;SDS011;22388;52.432;20.662;2023-02-01T01:48:45;10.00;;;2.47;;
36359;SDS011;22388;52.432;20.662;2023-02-01T01:51:14;10.27;;;2.65;;
36359;SDS011;22388;52.432;20.662;2023-02-01T01:53:43;14.20;;;3.20;;
36359;SDS011;22388;52.432;20.662;2023-02-01T01:56:13;10.55;;;3.60;;
36359;SDS011;22388;52.432;20.662;2023-02-01T01:58:39;15.00;;;2.92;;
36359;SDS011;22388;52.432;20.662;2023-02-01T02:01:05;17.25;;;3.05;;
36359;SDS011;22388;52.432;20.662;2023-02-01T02:03:40;13.52;;;3.08;;
36359;SDS011;22388;52.432;20.662;2023-02-01T02:08:53;14.80;;;3.75;;
36359;SDS011;22388;52.432;20.662;2023-02-01T02:11:19;14.68;;;3.83;;
36359;SDS011;22388;52.432;20.662;2023-02-01T02:13:46;17.52;;;4.32;;
36359;SDS011;22388;52.432;20.662;2023-02-01T02:19:00;15.45;;;4.15;;
36359;SDS011;22388;52.432;20.662;2023-02-01T02:27:26;11.13;;;3.30;;
36359;SDS011;22388;52.432;20.662;2023-02-01T02:41:49;19.48;;;4.05;;
36359;SDS011;22388;52.432;20.662;2023-02-01T02:59:15;15.30;;;3.30;;
36359;SDS011;22388;52.432;20.662;2023-02-01T03:02:06;22.20;;;3.63;;
36359;SDS011;22388;52.432;20.662;2023-02-01T03:04:54;17.02;;;3.42;;
36359;SDS011;22388;52.432;20.662;2023-02-01T03:10:21;17.20;;;3.17;;
36359;SDS011;22388;52.432;20.662;2023-02-01T03:13:04;19.98;;;3.55;;
36359;SDS011;22388;52.432;20.662;2023-02-01T03:15:37;17.95;;;3.15;;
36359;SDS011;22388;52.432;20.662;2023-02-01T03:18:08;17.25;;;3.97;;
36359;SDS011;22388;52.432;20.662;2023-02-01T03:20:38;16.60;;;3.40;;
36359;SDS011;22388;52.432;20.662;2023-02-01T03:23:06;19.63;;;2.97;;
36359;SDS011;22388;52.432;20.662;2023-02-01T03:25:32;19.15;;;3.70;;
36359;SDS011;22388;52.432;20.662;2023-02-01T03:28:02;14.75;;;2.90;;
36359;SDS011;22388;52.432;20.662;2023-02-01T03:30:33;13.45;;;2.72;;
36359;SDS011;22388;52.432;20.662;2023-02-01T03:33:02;23.02;;;3.25;;
36359;SDS011;22388;52.432;20.662;2023-02-01T03:35:40;19.83;;;3.70;;
36359;SDS011;22388;52.432;20.662;2023-02-01T03:43:53;13.60;;;3.13;;
36359;SDS011;22388;52.432;20.662;2023-02-01T03:46:23;18.25;;;3.15;;
36359;SDS011;22388;52.432;20.662;2023-02-01T03:48:53;17.75;;;3.03;;
36359;SDS011;22388;52.432;20.662;2023-02-01T03:51:19;16.27;;;2.70;;
36359;SDS011;22388;52.432;20.662;2023-02-01T03:53:45;17.20;;;3.10;;
36359;SDS011;22388;52.432;20.662;2023-02-01T03:56:14;17.67;;;3.00;;
36359;SDS011;22388;52.432;20.662;2023-02-01T03:58:41;15.68;;;3.25;;
36359;SDS011;22388;52.432;20.662;2023-02-01T04:01:06;27.83;;;3.30;;
36359;SDS011;22388;52.432;20.662;2023-02-01T04:03:32;19.35;;;3.05;;
36359;SDS011;22388;52.432;20.662;2023-02-01T04:05:58;18.58;;;3.92;;
36359;SDS011;22388;52.432;20.662;2023-02-01T04:08:23;18.10;;;3.92;;
36359;SDS011;22388;52.432;20.662;2023-02-01T04:10:49;19.38;;;4.05;;
36359;SDS011;22388;52.432;20.662;2023-02-01T04:13:15;14.88;;;2.97;;
36359;SDS011;22388;52.432;20.662;2023-02-01T04:15:40;13.07;;;3.05;;
36359;SDS011;22388;52.432;20.662;2023-02-01T04:18:06;18.00;;;4.88;;
36359;SDS011;22388;52.432;20.662;2023-02-01T04:20:31;15.75;;;2.67;;
36359;SDS011;22388;52.432;20.662;2023-02-01T04:22:57;19.13;;;3.50;;
36359;SDS011;22388;52.432;20.662;2023-02-01T04:25:22;12.85;;;2.90;;
36359;SDS011;22388;52.432;20.662;2023-02-01T04:27:48;16.15;;;3.20;;
36359;SDS011;22388;52.432;20.662;2023-02-01T04:30:14;20.73;;;3.60;;
36359;SDS011;22388;52.432;20.662;2023-02-01T04:32:39;17.40;;;3.47;;
36359;SDS011;22388;52.432;20.662;2023-02-01T04:35:06;20.63;;;3.25;;
36359;SDS011;22388;52.432;20.662;2023-02-01T04:37:32;13.80;;;2.65;;
36359;SDS011;22388;52.432;20.662;2023-02-01T04:39:58;21.52;;;3.63;;
36359;SDS011;22388;52.432;20.662;2023-02-01T04:42:24;19.35;;;3.90;;
36359;SDS011;22388;52.432;20.662;2023-02-01T04:44:49;17.70;;;3.05;;
36359;SDS011;22388;52.432;20.662;2023-02-01T04:47:15;18.52;;;4.07;;
36359;SDS011;22388;52.432;20.662;2023-02-01T04:49:41;23.13;;;3.50;;
36359;SDS011;22388;52.432;20.662;2023-02-01T04:52:06;22.90;;;3.85;;
36359;SDS011;22388;52.432;20.662;2023-02-01T04:54:32;18.98;;;3.40;;
36359;SDS011;22388;52.432;20.662;2023-02-01T04:56:58;22.00;;;3.70;;
36359;SDS011;22388;52.432;20.662;2023-02-01T04:59:24;15.93;;;3.03;;
36359;SDS011;22388;52.432;20.662;2023-02-01T05:01:49;15.70;;;2.90;;
36359;SDS011;22388;52.432;20.662;2023-02-01T05:04:15;17.10;;;3.47;;
36359;SDS011;22388;52.432;20.662;2023-02-01T05:06:40;17.95;;;3.42;;
36359;SDS011;22388;52.432;20.662;2023-02-01T05:09:06;19.55;;;3.10;;
36359;SDS011;22388;52.432;20.662;2023-02-01T05:11:32;20.85;;;3.72;;
36359;SDS011;22388;52.432;20.662;2023-02-01T05:14:15;24.27;;;3.40;;
36359;SDS011;22388;52.432;20.662;2023-02-01T05:16:41;18.40;;;2.80;;
36359;SDS011;22388;52.432;20.662;2023-02-01T05:19:07;16.13;;;2.65;;
36359;SDS011;22388;52.432;20.662;2023-02-01T05:21:32;15.77;;;2.78;;
36359;SDS011;22388;52.432;20.662;2023-02-01T05:23:58;17.05;;;3.38;;
36359;SDS011;22388;52.432;20.662;2023-02-01T05:26:36;19.30;;;3.22;;
36359;SDS011;22388;52.432;20.662;2023-02-01T05:29:02;20.33;;;3.40;;
36359;SDS011;22388;52.432;20.662;2023-02-01T05:31:30;20.33;;;3.20;;
36359;SDS011;22388;52.432;20.662;2023-02-01T05:33:56;12.88;;;3.40;;
36359;SDS011;22388;52.432;20.662;2023-02-01T05:36:22;18.42;;;2.95;;
36359;SDS011;22388;52.432;20.662;2023-02-01T05:38:47;19.98;;;2.92;;
36359;SDS011;22388;52.432;20.662;2023-02-01T05:41:13;12.38;;;2.80;;
36359;SDS011;22388;52.432;20.662;2023-02-01T05:43:39;14.93;;;2.63;;
36359;SDS011;22388;52.432;20.662;2023-02-01T05:46:04;20.25;;;3.08;;
36359;SDS011;22388;52.432;20.662;2023-02-01T05:48:30;12.75;;;2.65;;
36359;SDS011;22388;52.432;20.662;2023-02-01T05:50:56;22.77;;;3.53;;
36359;SDS011;22388;52.432;20.662;2023-02-01T05:53:21;21.40;;;2.63;;
36359;SDS011;22388;52.432;20.662;2023-02-01T05:55:47;18.83;;;3.40;;
36359;SDS011;22388;52.432;20.662;2023-02-01T05:58:12;19.83;;;2.97;;
36359;SDS011;22388;52.432;20.662;2023-02-01T06:00:38;14.27;;;2.60;;
36359;SDS011;22388;52.432;20.662;2023-02-01T06:03:04;26.13;;;3.00;;
36359;SDS011;22388;52.432;20.662;2023-02-01T06:05:30;17.00;;;2.58;;
36359;SDS011;22388;52.432;20.662;2023-02-01T06:07:56;16.98;;;2.90;;
36359;SDS011;22388;52.432;20.662;2023-02-01T06:10:22;19.25;;;2.92;;
36359;SDS011;22388;52.432;20.662;2023-02-01T06:12:48;13.23;;;2.33;;
36359;SDS011;22388;52.432;20.662;2023-02-01T06:15:14;20.17;;;2.83;;
36359;SDS011;22388;52.432;20.662;2023-02-01T06:17:44;19.35;;;2.90;;
36359;SDS011;22388;52.432;20.662;2023-02-01T06:20:11;14.63;;;2.60;;
36359;SDS011;22388;52.432;20.662;2023-02-01T06:26:00;18.15;;;3.15;;
36359;SDS011;22388;52.432;20.662;2023-02-01T06:28:28;17.00;;;3.13;;
36359;SDS011;22388;52.432;20.662;2023-02-01T06:30:54;18.95;;;3.05;;
36359;SDS011;22388;52.432;20.662;2023-02-01T06:33:20;16.23;;;3.45;;
36359;SDS011;22388;52.432;20.662;2023-02-01T06:35:45;18.15;;;2.75;;
36359;SDS011;22388;52.432;20.662;2023-02-01T06:38:12;14.27;;;2.80;;
36359;SDS011;22388;52.432;20.662;2023-02-01T06:40:38;18.35;;;2.75;;
36359;SDS011;22388;52.432;20.662;2023-02-01T06:43:04;18.15;;;3.35;;
36359;SDS011;22388;52.432;20.662;2023-02-01T06:45:30;13.88;;;2.60;;
36359;SDS011;22388;52.432;20.662;2023-02-01T06:47:55;18.73;;;3.08;;
36359;SDS011;22388;52.432;20.662;2023-02-01T06:50:21;14.23;;;2.60;;
36359;SDS011;22388;52.432;20.662;2023-02-01T06:52:47;21.90;;;3.25;;
36359;SDS011;22388;52.432;20.662;2023-02-01T06:55:12;22.20;;;3.30;;
36359;SDS011;22388;52.432;20.662;2023-02-01T06:57:38;20.40;;;3.60;;
36359;SDS011;22388;52.432;20.662;2023-02-01T07:00:04;19.83;;;3.15;;
36359;SDS011;22388;52.432;20.662;2023-02-01T07:02:31;19.17;;;2.97;;
36359;SDS011;22388;52.432;20.662;2023-02-01T07:04:57;13.75;;;2.60;;
36359;SDS011;22388;52.432;20.662;2023-02-01T07:07:22;22.02;;;3.35;;
36359;SDS011;22388;52.432;20.662;2023-02-01T07:09:51;17.55;;;3.13;;
36359;SDS011;22388;52.432;20.662;2023-02-01T07:12:16;16.00;;;3.20;;
36359;SDS011;22388;52.432;20.662;2023-02-01T07:14:43;19.90;;;3.88;;
36359;SDS011;22388;52.432;20.662;2023-02-01T07:17:08;19.17;;;3.80;;
36359;SDS011;22388;52.432;20.662;2023-02-01T07:19:34;15.50;;;3.28;;
36359;SDS011;22388;52.432;20.662;2023-02-01T07:22:00;19.73;;;3.47;;
36359;SDS011;22388;52.432;20.662;2023-02-01T07:24:25;22.13;;;3.65;;
36359;SDS011;22388;52.432;20.662;2023-02-01T07:26:51;24.63;;;3.65;;
36359;SDS011;22388;52.432;20.662;2023-02-01T07:29:17;23.70;;;4.15;;
36359;SDS011;22388;52.432;20.662;2023-02-01T07:31:44;23.85;;;3.00;;
36359;SDS011;22388;52.432;20.662;2023-02-01T07:34:10;15.75;;;3.30;;
36359;SDS011;22388;52.432;20.662;2023-02-01T07:36:36;22.98;;;3.47;;
36359;SDS011;22388;52.432;20.662;2023-02-01T07:39:02;17.15;;;3.65;;
36359;SDS011;22388;52.432;20.662;2023-02-01T07:41:28;24.25;;;3.88;;
36359;SDS011;22388;52.432;20.662;2023-02-01T07:43:55;14.35;;;3.45;;
36359;SDS011;22388;52.432;20.662;2023-02-01T07:46:21;15.45;;;3.30;;
36359;SDS011;22388;52.432;20.662;2023-02-01T07:48:47;23.55;;;3.42;;
36359;SDS011;22388;52.432;20.662;2023-02-01T07:51:13;23.77;;;3.85;;
36359;SDS011;22388;52.432;20.662;2023-02-01T07:53:40;17.50;;;3.53;;
36359;SDS011;22388;52.432;20.662;2023-02-01T07:56:16;18.20;;;3.40;;
36359;SDS011;22388;52.432;20.662;2023-02-01T07:58:43;23.65;;;3.92;;
36359;SDS011;22388;52.432;20.662;2023-02-01T08:01:15;23.90;;;4.53;;
36359;SDS011;22388;52.432;20.662;2023-02-01T08:03:59;19.40;;;3.53;;
36359;SDS011;22388;52.432;20.662;2023-02-01T08:06:26;27.38;;;4.60;;
36359;SDS011;22388;52.432;20.662;2023-02-01T08:08:54;18.77;;;3.72;;
36359;SDS011;22388;52.432;20.662;2023-02-01T08:11:20;28.13;;;4.20;;
36359;SDS011;22388;52.432;20.662;2023-02-01T08:13:46;21.00;;;4.10;;
36359;SDS011;22388;52.432;20.662;2023-02-01T08:16:13;19.52;;;4.00;;
36359;SDS011;22388;52.432;20.662;2023-02-01T08:18:39;18.65;;;3.97;;
36359;SDS011;22388;52.432;20.662;2023-02-01T08:21:06;19.38;;;3.60;;
36359;SDS011;22388;52.432;20.662;2023-02-01T08:23:36;18.77;;;3.75;;
36359;SDS011;22388;52.432;20.662;2023-02-01T08:26:09;20.02;;;4.03;;
36359;SDS011;22388;52.432;20.662;2023-02-01T08:28:38;24.95;;;3.92;;
36359;SDS011;22388;52.432;20.662;2023-02-01T08:31:05;20.55;;;3.90;;
36359;SDS011;22388;52.432;20.662;2023-02-01T08:33:32;24.52;;;4.38;;
36359;SDS011;22388;52.432;20.662;2023-02-01T08:35:59;23.05;;;4.20;;
36359;SDS011;22388;52.432;20.662;2023-02-01T08:38:26;23.17;;;4.53;;
36359;SDS011;22388;52.432;20.662;2023-02-01T08:40:51;23.30;;;3.92;;
36359;SDS011;22388;52.432;20.662;2023-02-01T08:43:18;21.60;;;4.00;;
36359;SDS011;22388;52.432;20.662;2023-02-01T08:45:43;20.13;;;4.00;;
36359;SDS011;22388;52.432;20.662;2023-02-01T08:48:09;22.92;;;4.45;;
36359;SDS011;22388;52.432;20.662;2023-02-01T08:50:35;16.33;;;4.43;;
36359;SDS011;22388;52.432;20.662;2023-02-01T08:53:00;27.58;;;4.60;;
36359;SDS011;22388;52.432;20.662;2023-02-01T08:55:26;27.45;;;4.65;;
36359;SDS011;22388;52.432;20.662;2023-02-01T08:57:51;24.63;;;4.88;;
36359;SDS011;22388;52.432;20.662;2023-02-01T09:00:17;22.38;;;4.65;;
36359;SDS011;22388;52.432;20.662;2023-02-01T09:02:43;26.52;;;4.93;;
36359;SDS011;22388;52.432;20.662;2023-02-01T09:05:10;22.63;;;4.85;;
36359;SDS011;22388;52.432;20.662;2023-02-01T09:07:36;21.67;;;3.97;;
36359;SDS011;22388;52.432;20.662;2023-02-01T09:10:02;19.15;;;4.10;;
36359;SDS011;22388;52.432;20.662;2023-02-01T09:12:29;16.42;;;3.67;;
36359;SDS011;22388;52.432;20.662;2023-02-01T09:14:59;23.05;;;4.15;;
36359;SDS011;22388;52.432;20.662;2023-02-01T09:17:28;18.15;;;4.15;;
36359;SDS011;22388;52.432;20.662;2023-02-01T09:19:54;24.52;;;3.65;;
36359;SDS011;22388;52.432;20.662;2023-02-01T09:22:20;17.90;;;4.18;;
36359;SDS011;22388;52.432;20.662;2023-02-01T09:24:47;18.45;;;4.18;;
36359;SDS011;22388;52.432;20.662;2023-02-01T09:27:13;21.08;;;4.20;;
36359;SDS011;22388;52.432;20.662;2023-02-01T09:29:38;23.60;;;4.47;;
36359;SDS011;22388;52.432;20.662;2023-02-01T09:32:04;16.50;;;4.00;;
36359;SDS011;22388;52.432;20.662;2023-02-01T09:34:31;19.48;;;3.85;;
36359;SDS011;22388;52.432;20.662;2023-02-01T09:36:58;23.02;;;4.05;;
36359;SDS011;22388;52.432;20.662;2023-02-01T09:39:23;20.38;;;3.97;;
36359;SDS011;22388;52.432;20.662;2023-02-01T09:47:14;23.90;;;3.90;;
36359;SDS011;22388;52.432;20.662;2023-02-01T09:50:04;19.25;;;4.18;;
36359;SDS011;22388;52.432;20.662;2023-02-01T09:52:31;21.85;;;4.93;;
36359;SDS011;22388;52.432;20.662;2023-02-01T09:55:32;23.15;;;5.05;;
36359;SDS011;22388;52.432;20.662;2023-02-01T09:58:04;20.67;;;4.40;;
36359;SDS011;22388;52.432;20.662;2023-02-01T10:00:37;15.20;;;3.78;;
36359;SDS011;22388;52.432;20.662;2023-02-01T10:03:04;17.52;;;3.50;;
36359;SDS011;22388;52.432;20.662;2023-02-01T10:10:53;16.60;;;3.80;;
36359;SDS011;22388;52.432;20.662;2023-02-01T10:16:02;19.83;;;3.33;;
36359;SDS011;22388;52.432;20.662;2023-02-01T10:18:37;15.63;;;3.58;;
36359;SDS011;22388;52.432;20.662;2023-02-01T10:21:09;15.80;;;4.00;;
36359;SDS011;22388;52.432;20.662;2023-02-01T10:26:23;16.30;;;3.90;;
36359;SDS011;22388;52.432;20.662;2023-02-01T10:28:58;18.67;;;3.70;;
36359;SDS011;22388;52.432;20.662;2023-02-01T10:31:26;20.88;;;4.25;;
36359;SDS011;22388;52.432;20.662;2023-02-01T10:33:58;18.90;;;4.28;;
36359;SDS011;22388;52.432;20.662;2023-02-01T10:36:32;19.85;;;3.92;;
36359;SDS011;22388;52.432;20.662;2023-02-01T10:39:02;18.77;;;4.43;;
36359;SDS011;22388;52.432;20.662;2023-02-01T10:41:35;16.77;;;3.65;;
36359;SDS011;22388;52.432;20.662;2023-02-01T10:44:03;17.90;;;4.00;;
36359;SDS011;22388;52.432;20.662;2023-02-01T10:46:30;16.92;;;4.25;;
36359;SDS011;22388;52.432;20.662;2023-02-01T10:48:56;16.27;;;4.20;;
36359;SDS011;22388;52.432;20.662;2023-02-01T10:51:39;18.08;;;3.80;;
36359;SDS011;22388;52.432;20.662;2023-02-01T10:54:16;17.50;;;4.75;;
36359;SDS011;22388;52.432;20.662;2023-02-01T10:56:45;22.77;;;3.97;;
36359;SDS011;22388;52.432;20.662;2023-02-01T10:59:16;21.48;;;4.72;;
36359;SDS011;22388;52.432;20.662;2023-02-01T11:01:47;17.38;;;4.50;;
36359;SDS011;22388;52.432;20.662;2023-02-01T11:04:17;20.80;;;4.55;;
36359;SDS011;22388;52.432;20.662;2023-02-01T11:06:46;22.52;;;4.82;;
36359;SDS011;22388;52.432;20.662;2023-02-01T11:09:18;23.48;;;5.03;;
36359;SDS011;22388;52.432;20.662;2023-02-01T11:14:15;26.27;;;5.47;;
36359;SDS011;22388;52.432;20.662;2023-02-01T11:16:47;16.30;;;4.30;;
36359;SDS011;22388;52.432;20.662;2023-02-01T11:19:15;21.27;;;5.97;;
36359;SDS011;22388;52.432;20.662;2023-02-01T11:21:42;22.08;;;4.80;;
36359;SDS011;22388;52.432;20.662;2023-02-01T11:24:17;19.52;;;3.97;;
36359;SDS011;22388;52.432;20.662;2023-02-01T11:26:49;15.75;;;3.45;;
36359;SDS011;22388;52.432;20.662;2023-02-01T11:29:16;17.77;;;4.13;;
36359;SDS011;22388;52.432;20.662;2023-02-01T11:31:43;18.92;;;3.75;;
36359;SDS011;22388;52.432;20.662;2023-02-01T11:34:45;16.23;;;4.03;;
36359;SDS011;22388;52.432;20.662;2023-02-01T11:37:20;17.35;;;3.67;;
36359;SDS011;22388;52.432;20.662;2023-02-01T11:39:58;19.30;;;3.58;;
36359;SDS011;22388;52.432;20.662;2023-02-01T11:42:26;17.67;;;6.75;;
36359;SDS011;22388;52.432;20.662;2023-02-01T11:45:13;18.30;;;4.25;;
36359;SDS011;22388;52.432;20.662;2023-02-01T11:47:46;20.20;;;4.90;;
36359;SDS011;22388;52.432;20.662;2023-02-01T11:50:16;21.30;;;4.88;;
36359;SDS011;22388;52.432;20.662;2023-02-01T11:52:55;23.05;;;5.63;;
36359;SDS011;22388;52.432;20.662;2023-02-01T11:58:22;25.95;;;6.10;;
36359;SDS011;22388;52.432;20.662;2023-02-01T12:06:18;21.60;;;5.05;;
36359;SDS011;22388;52.432;20.662;2023-02-01T12:09:08;20.83;;;5.43;;
36359;SDS011;22388;52.432;20.662;2023-02-01T12:14:24;23.38;;;5.32;;
36359;SDS011;22388;52.432;20.662;2023-02-01T12:22:30;22.15;;;5.18;;
36359;SDS011;22388;52.432;20.662;2023-02-01T12:25:27;23.55;;;4.78;;
36359;SDS011;22388;52.432;20.662;2023-02-01T12:28:26;22.05;;;5.45;;
36359;SDS011;22388;52.432;20.662;2023-02-01T12:31:01;21.95;;;6.28;;
36359;SDS011;22388;52.432;20.662;2023-02-01T12:33:46;18.13;;;5.20;;
36359;SDS011;22388;52.432;20.662;2023-02-01T12:36:26;18.95;;;5.40;;
36359;SDS011;22388;52.432;20.662;2023-02-01T12:41:39;23.55;;;6.45;;
36359;SDS011;22388;52.432;20.662;2023-02-01T12:47:49;24.55;;;6.07;;
36359;SDS011;22388;52.432;20.662;2023-02-01T12:53:24;24.52;;;5.30;;
36359;SDS011;22388;52.432;20.662;2023-02-01T12:55:55;19.08;;;4.82;;
36359;SDS011;22388;52.432;20.662;2023-02-01T13:01:00;22.30;;;4.85;;
36359;SDS011;22388;52.432;20.662;2023-02-01T13:03:38;14.40;;;4.40;;
36359;SDS011;22388;52.432;20.662;2023-02-01T13:09:36;25.73;;;5.35;;
36359;SDS011;22388;52.432;20.662;2023-02-01T13:12:13;16.25;;;4.80;;
36359;SDS011;22388;52.432;20.662;2023-02-01T13:14:46;20.55;;;5.57;;
36359;SDS011;22388;52.432;20.662;2023-02-01T13:17:16;19.13;;;4.35;;
36359;SDS011;22388;52.432;20.662;2023-02-01T13:22:29;17.98;;;4.10;;
36359;SDS011;22388;52.432;20.662;2023-02-01T13:25:00;19.75;;;5.60;;
36359;SDS011;22388;52.432;20.662;2023-02-01T13:27:50;19.27;;;5.88;;
36359;SDS011;22388;52.432;20.662;2023-02-01T13:30:23;18.27;;;6.03;;
36359;SDS011;22388;52.432;20.662;2023-02-01T13:43:43;14.90;;;3.47;;
36359;SDS011;22388;52.432;20.662;2023-02-01T13:46:12;10.75;;;2.70;;
36359;SDS011;22388;52.432;20.662;2023-02-01T13:48:49;14.73;;;3.08;;
36359;SDS011;22388;52.432;20.662;2023-02-01T13:51:31;13.73;;;3.10;;
36359;SDS011;22388;52.432;20.662;2023-02-01T13:54:06;11.75;;;2.63;;
36359;SDS011;22388;52.432;20.662;2023-02-01T13:56:41;15.45;;;3.17;;
36359;SDS011;22388;52.432;20.662;2023-02-01T14:05:11;9.93;;;2.65;;
36359;SDS011;22388;52.432;20.662;2023-02-01T14:08:07;13.07;;;2.80;;
36359;SDS011;22388;52.432;20.662;2023-02-01T14:26:47;10.90;;;3.17;;
36359;SDS011;22388;52.432;20.662;2023-02-01T14:34:48;13.32;;;3.63;;
36359;SDS011;22388;52.432;20.662;2023-02-01T14:42:20;14.52;;;3.60;;
36359;SDS011;22388;52.432;20.662;2023-02-01T14:47:45;9.30;;;3.22;;
36359;SDS011;22388;52.432;20.662;2023-02-01T14:52:42;12.48;;;3.55;;
36359;SDS011;22388;52.432;20.662;2023-02-01T14:55:37;8.80;;;3.17;;
36359;SDS011;22388;52.432;20.662;2023-02-01T14:58:11;12.95;;;3.92;;
36359;SDS011;22388;52.432;20.662;2023-02-01T15:01:01;11.02;;;3.53;;
36359;SDS011;22388;52.432;20.662;2023-02-01T15:09:24;16.35;;;4.00;;
36359;SDS011;22388;52.432;20.662;2023-02-01T15:12:03;11.63;;;4.03;;
36359;SDS011;22388;52.432;20.662;2023-02-01T15:14:30;12.45;;;4.20;;
36359;SDS011;22388;52.432;20.662;2023-02-01T15:17:20;12.60;;;4.57;;
36359;SDS011;22388;52.432;20.662;2023-02-01T15:19:56;14.48;;;4.40;;
36359;SDS011;22388;52.432;20.662;2023-02-01T15:22:23;14.57;;;4.57;;
36359;SDS011;22388;52.432;20.662;2023-02-01T15:24:52;10.68;;;3.47;;
36359;SDS011;22388;52.432;20.662;2023-02-01T15:27:19;9.82;;;3.60;;
36359;SDS011;22388;52.432;20.662;2023-02-01T15:29:45;13.13;;;3.92;;
36359;SDS011;22388;52.432;20.662;2023-02-01T15:32:30;11.23;;;4.00;;
36359;SDS011;22388;52.432;20.662;2023-02-01T15:34:58;11.75;;;3.80;;
36359;SDS011;22388;52.432;20.662;2023-02-01T15:37:25;11.85;;;4.10;;
36359;SDS011;22388;52.432;20.662;2023-02-01T15:42:49;16.63;;;5.47;;
36359;SDS011;22388;52.432;20.662;2023-02-01T15:45:18;17.48;;;6.40;;
36359;SDS011;22388;52.432;20.662;2023-02-01T15:47:54;15.88;;;6.28;;
36359;SDS011;22388;52.432;20.662;2023-02-01T15:50:21;14.00;;;4.13;;
36359;SDS011;22388;52.432;20.662;2023-02-01T15:52:48;14.93;;;4.90;;
36359;SDS011;22388;52.432;20.662;2023-02-01T15:55:20;17.10;;;5.07;;
36359;SDS011;22388;52.432;20.662;2023-02-01T15:57:49;13.18;;;4.45;;
36359;SDS011;22388;52.432;20.662;2023-02-01T16:00:21;11.52;;;4.25;;
36359;SDS011;22388;52.432;20.662;2023-02-01T16:10:42;13.55;;;4.63;;
36359;SDS011;22388;52.432;20.662;2023-02-01T16:13:10;15.30;;;4.65;;
36359;SDS011;22388;52.432;20.662;2023-02-01T16:15:37;13.98;;;4.70;;
36359;SDS011;22388;52.432;20.662;2023-02-01T16:18:03;16.33;;;4.65;;
36359;SDS011;22388;52.432;20.662;2023-02-01T16:20:29;11.23;;;4.30;;
36359;SDS011;22388;52.432;20.662;2023-02-01T16:22:55;13.82;;;4.47;;
36359;SDS011;22388;52.432;20.662;2023-02-01T16:25:21;22.35;;;7.38;;
36359;SDS011;22388;52.432;20.662;2023-02-01T16:27:47;23.98;;;8.88;;
36359;SDS011;22388;52.432;20.662;2023-02-01T16:30:13;19.77;;;7.22;;
36359;SDS011;22388;52.432;20.662;2023-02-01T16:32:39;14.65;;;5.25;;
36359;SDS011;22388;52.432;20.662;2023-02-01T16:35:05;17.27;;;5.85;;
36359;SDS011;22388;52.432;20.662;2023-02-01T16:37:48;17.40;;;6.60;;
36359;SDS011;22388;52.432;20.662;2023-02-01T16:40:14;13.80;;;5.40;;
36359;SDS011;22388;52.432;20.662;2023-02-01T16:42:41;13.82;;;5.05;;
36359;SDS011;22388;52.432;20.662;2023-02-01T16:45:07;16.05;;;5.85;;
36359;SDS011;22388;52.432;20.662;2023-02-01T16:47:33;16.65;;;6.38;;
36359;SDS011;22388;52.432;20.662;2023-02-01T16:50:01;11.85;;;5.03;;
36359;SDS011;22388;52.432;20.662;2023-02-01T16:52:27;15.63;;;4.78;;
36359;SDS011;22388;52.432;20.662;2023-02-01T16:54:53;13.50;;;4.93;;
36359;SDS011;22388;52.432;20.662;2023-02-01T16:57:19;13.18;;;5.32;;
36359;SDS011;22388;52.432;20.662;2023-02-01T16:59:47;14.70;;;4.93;;
36359;SDS011;22388;52.432;20.662;2023-02-01T17:02:14;14.30;;;4.75;;
36359;SDS011;22388;52.432;20.662;2023-02-01T17:04:41;12.20;;;4.60;;
36359;SDS011;22388;52.432;20.662;2023-02-01T17:07:10;11.93;;;4.13;;
36359;SDS011;22388;52.432;20.662;2023-02-01T17:09:39;13.80;;;4.47;;
36359;SDS011;22388;52.432;20.662;2023-02-01T17:12:05;12.40;;;4.22;;
36359;SDS011;22388;52.432;20.662;2023-02-01T17:14:31;13.05;;;4.20;;
36359;SDS011;22388;52.432;20.662;2023-02-01T17:16:59;14.57;;;4.40;;
36359;SDS011;22388;52.432;20.662;2023-02-01T17:19:25;12.20;;;4.35;;
36359;SDS011;22388;52.432;20.662;2023-02-01T17:21:52;16.10;;;4.25;;
36359;SDS011;22388;52.432;20.662;2023-02-01T17:24:24;15.15;;;4.47;;
36359;SDS011;22388;52.432;20.662;2023-02-01T17:26:52;13.02;;;4.63;;